createdAt,value
2022-10-06T00:02:19.204Z,0.38
2022-10-06T00:04:46.497Z,0.25
2022-10-06T00:07:13.835Z,0.40
2022-10-06T00:09:40.199Z,0.73
2022-10-06T00:12:06.942Z,0.57
2022-10-06T00:14:33.338Z,0.40
2022-10-06T00:16:59.855Z,0.47
2022-10-06T00:19:26.278Z,0.22
2022-10-06T00:21:53.249Z,0.50
2022-10-06T00:24:19.657Z,0.55
2022-10-06T00:26:47.284Z,0.43
2022-10-06T00:29:14.797Z,1.55
2022-10-06T00:31:41.781Z,0.50
2022-10-06T00:34:08.171Z,0.50
2022-10-06T00:36:34.619Z,0.55
2022-10-06T00:39:01.284Z,0.75
2022-10-06T00:41:28.686Z,0.57
2022-10-06T00:43:57.633Z,0.52
2022-10-06T00:46:24.247Z,0.57
2022-10-06T00:48:59.692Z,0.52
2022-10-06T00:51:27.264Z,0.47
2022-10-06T00:53:53.710Z,0.70
2022-10-06T00:56:20.137Z,0.98
2022-10-06T00:58:46.549Z,0.40
2022-10-06T01:01:13.160Z,0.30
2022-10-06T01:03:45.109Z,0.47
2022-10-06T01:06:11.705Z,0.30
2022-10-06T01:08:39.088Z,0.70
2022-10-06T01:11:06.663Z,0.37
2022-10-06T01:13:33.282Z,0.55
2022-10-06T01:16:09.251Z,0.47
2022-10-06T01:18:39.345Z,0.63
2022-10-06T01:21:17.156Z,0.63
2022-10-06T01:23:43.714Z,0.33
2022-10-06T01:26:11.416Z,0.30
2022-10-06T01:28:39.335Z,0.30
2022-10-06T01:31:07.788Z,0.40
2022-10-06T01:33:34.211Z,0.63
2022-10-06T01:36:00.632Z,0.23
2022-10-06T01:38:27.512Z,0.35
2022-10-06T01:40:54.296Z,0.50
2022-10-06T01:43:21.345Z,0.95
2022-10-06T01:45:58.225Z,0.65
2022-10-06T01:48:25.652Z,0.40
2022-10-06T01:50:52.457Z,0.45
2022-10-06T01:53:18.862Z,0.22
2022-10-06T01:55:46.361Z,0.80
2022-10-06T01:58:13.080Z,0.32
2022-10-06T02:00:40.412Z,0.43
2022-10-06T02:03:07.674Z,0.30
2022-10-06T02:05:34.827Z,0.35
2022-10-06T02:08:02.790Z,0.30
2022-10-06T02:10:29.192Z,0.55
2022-10-06T02:12:55.566Z,1.17
2022-10-06T02:15:21.975Z,0.80
2022-10-06T02:17:48.513Z,0.38
2022-10-06T02:20:15.367Z,0.60
2022-10-06T02:22:43.711Z,0.43
2022-10-06T02:25:11.295Z,0.30
2022-10-06T02:27:38.264Z,0.75
2022-10-06T02:30:06.695Z,0.68
2022-10-06T02:32:38.914Z,0.60
2022-10-06T02:35:07.701Z,0.43
2022-10-06T02:37:34.426Z,0.40
2022-10-06T02:40:00.773Z,0.35
2022-10-06T02:42:27.373Z,0.25
2022-10-06T02:44:53.931Z,0.60
2022-10-06T02:47:22.218Z,0.63
2022-10-06T02:49:48.543Z,0.40
2022-10-06T02:52:15.451Z,0.73
2022-10-06T02:54:42.399Z,0.30
2022-10-06T02:57:09.394Z,0.60
2022-10-06T02:59:36.409Z,0.47
2022-10-06T03:02:02.983Z,0.47
2022-10-06T03:04:29.934Z,0.55
2022-10-06T03:06:56.289Z,0.30
2022-10-06T03:09:22.708Z,0.43
2022-10-06T03:11:49.092Z,0.55
2022-10-06T03:14:19.253Z,0.30
2022-10-06T03:16:48.118Z,0.25
2022-10-06T03:19:14.495Z,0.65
2022-10-06T03:21:43.059Z,0.70
2022-10-06T03:24:10.309Z,0.65
2022-10-06T03:26:39.559Z,0.30
2022-10-06T03:29:11.141Z,0.80
2022-10-06T03:31:38.886Z,0.43
2022-10-06T03:34:05.819Z,0.47
2022-10-06T03:36:33.904Z,0.57
2022-10-06T03:39:02.617Z,0.30
2022-10-06T03:41:31.529Z,0.40
2022-10-06T03:43:59.542Z,0.40
2022-10-06T03:46:28.783Z,0.40
2022-10-06T03:48:57.262Z,0.40
2022-10-06T03:51:29.996Z,0.30
2022-10-06T03:53:57.146Z,0.30
2022-10-06T03:56:42.652Z,0.30
2022-10-06T03:59:11.523Z,0.35
2022-10-06T04:01:43.617Z,0.93
2022-10-06T04:04:11.232Z,0.20
2022-10-06T04:06:39.767Z,0.50
2022-10-06T04:09:14.759Z,0.38
2022-10-06T04:11:42.854Z,0.98
2022-10-06T04:14:12.947Z,0.30
2022-10-06T04:16:42.685Z,0.80
2022-10-06T04:19:11.038Z,0.32
2022-10-06T04:21:39.051Z,0.40
2022-10-06T04:24:07.085Z,0.95
2022-10-06T04:26:36.615Z,0.50
2022-10-06T04:29:03.212Z,1.00
2022-10-06T04:31:31.727Z,0.52
2022-10-06T04:33:59.835Z,0.63
2022-10-06T04:36:29.085Z,0.50
2022-10-06T04:38:58.778Z,0.65
2022-10-06T04:41:28.005Z,0.60
2022-10-06T04:43:55.575Z,0.35
2022-10-06T04:46:42.258Z,0.47
2022-10-06T04:49:13.344Z,0.40
2022-10-06T04:51:44.444Z,0.63
2022-10-06T04:54:10.842Z,0.70
2022-10-06T04:56:37.208Z,0.30
2022-10-06T05:01:35.645Z,0.57
2022-10-06T05:04:03.879Z,0.50
2022-10-06T05:06:31.446Z,0.70
2022-10-06T05:09:21.884Z,0.43
2022-10-06T05:11:48.236Z,0.35
2022-10-06T05:14:14.603Z,0.45
2022-10-06T05:16:42.896Z,0.77
2022-10-06T05:19:09.298Z,0.57
2022-10-06T05:21:36.140Z,0.80
2022-10-06T05:24:03.440Z,1.05
2022-10-06T05:26:31.682Z,0.98
2022-10-06T05:28:58.356Z,0.80
2022-10-06T05:31:27.720Z,0.37
2022-10-06T05:33:55.280Z,0.20
2022-10-06T05:36:30.353Z,0.38
2022-10-06T05:38:57.427Z,0.57
2022-10-06T05:41:26.412Z,0.77
2022-10-06T05:43:53.208Z,0.30
2022-10-06T05:46:30.448Z,0.57
2022-10-06T05:48:59.179Z,0.60
2022-10-06T05:51:30.947Z,0.85
2022-10-06T05:53:59.074Z,0.65
2022-10-06T05:56:33.291Z,0.50
2022-10-06T05:59:00.530Z,0.40
2022-10-06T06:01:35.279Z,0.52
2022-10-06T06:04:03.602Z,0.63
2022-10-06T06:06:37.888Z,0.30
2022-10-06T06:09:07.419Z,1.10
2022-10-06T06:11:35.687Z,0.60
2022-10-06T06:14:08.512Z,0.40
2022-10-06T06:16:36.923Z,0.50
2022-10-06T06:19:03.325Z,1.38
2022-10-06T06:21:30.043Z,0.47
2022-10-06T06:23:56.545Z,0.55
2022-10-06T06:26:28.666Z,0.50
2022-10-06T06:29:00.124Z,0.35
2022-10-06T06:31:29.745Z,0.82
2022-10-06T06:33:57.850Z,0.50
2022-10-06T06:36:25.696Z,0.98
2022-10-06T06:38:56.857Z,0.95
2022-10-06T06:41:27.105Z,0.73
2022-10-06T06:43:54.039Z,0.60
2022-10-06T06:46:24.839Z,0.53
2022-10-06T06:48:52.585Z,1.08
2022-10-06T06:51:24.154Z,0.77
2022-10-06T06:53:51.653Z,0.50
2022-10-06T06:56:18.901Z,0.80
2022-10-06T06:58:47.399Z,1.07
2022-10-06T07:01:17.210Z,0.50
2022-10-06T07:04:03.376Z,0.70
2022-10-06T07:06:31.055Z,0.70
2022-10-06T07:08:59.408Z,0.80
2022-10-06T07:11:32.003Z,0.77
2022-10-06T07:14:07.053Z,0.55
2022-10-06T07:16:52.557Z,0.63
2022-10-06T07:19:39.965Z,0.57
2022-10-06T07:22:28.094Z,1.10
2022-10-06T07:25:07.909Z,0.57
2022-10-06T07:27:43.330Z,0.50
2022-10-06T07:30:19.183Z,0.70
2022-10-06T07:32:47.238Z,0.73
2022-10-06T07:35:14.119Z,0.80
2022-10-06T07:37:40.707Z,0.63
2022-10-06T07:40:08.930Z,0.80
2022-10-06T07:42:48.091Z,1.05
2022-10-06T07:45:34.273Z,0.80
2022-10-06T07:48:01.983Z,0.60
2022-10-06T07:50:28.723Z,1.40
2022-10-06T07:52:55.097Z,0.70
2022-10-06T07:55:21.648Z,0.60
2022-10-06T07:57:50.871Z,1.25
2022-10-06T08:00:20.875Z,1.13
2022-10-06T08:02:47.343Z,0.67
2022-10-06T08:05:14.544Z,0.73
2022-10-06T08:07:41.180Z,1.02
2022-10-06T08:10:07.806Z,0.88
2022-10-06T08:12:34.376Z,0.73
2022-10-06T08:15:07.073Z,0.73
2022-10-06T08:17:38.313Z,0.80
2022-10-06T08:20:07.567Z,0.68
2022-10-06T08:22:36.032Z,0.57
2022-10-06T08:25:07.322Z,1.35
2022-10-06T08:27:35.641Z,0.50
2022-10-06T08:30:04.437Z,0.70
2022-10-06T08:32:32.100Z,0.73
2022-10-06T08:34:58.987Z,0.82
2022-10-06T08:37:27.187Z,0.95
2022-10-06T08:39:54.553Z,0.60
2022-10-06T08:42:42.191Z,0.73
2022-10-06T08:45:38.865Z,0.70
2022-10-06T08:48:19.455Z,0.60
2022-10-06T08:51:23.901Z,0.90
2022-10-06T08:54:08.155Z,1.03
2022-10-06T08:56:51.919Z,0.20
2022-10-06T08:59:18.273Z,0.50
2022-10-06T09:01:47.784Z,0.50
2022-10-06T09:04:23.187Z,0.63
2022-10-06T09:07:05.513Z,0.83
2022-10-06T09:09:56.215Z,0.50
2022-10-06T09:12:54.599Z,0.77
2022-10-06T09:15:48.114Z,0.40
2022-10-06T09:18:22.579Z,0.93
2022-10-06T09:21:06.462Z,0.30
2022-10-06T09:23:50.460Z,0.75
2022-10-06T09:26:29.202Z,0.68
2022-10-06T09:28:56.606Z,0.40
2022-10-06T09:31:25.876Z,0.60
2022-10-06T09:33:55.277Z,0.40
2022-10-06T09:36:22.194Z,0.60
2022-10-06T09:38:53.885Z,0.50
2022-10-06T09:41:49.819Z,0.75
2022-10-06T09:44:29.338Z,0.60
2022-10-06T09:46:55.671Z,0.60
2022-10-06T09:49:26.625Z,0.50
2022-10-06T09:52:16.187Z,1.35
2022-10-06T09:54:43.625Z,0.38
2022-10-06T09:57:21.381Z,0.82
2022-10-06T09:59:48.610Z,0.30
2022-10-06T10:02:30.521Z,0.55
2022-10-06T10:04:57.560Z,0.50
2022-10-06T10:07:26.988Z,0.43
2022-10-06T10:10:10.211Z,0.52
2022-10-06T10:12:36.608Z,0.50
2022-10-06T10:15:22.849Z,0.50
2022-10-06T10:17:52.075Z,0.50
2022-10-06T10:20:24.551Z,0.55
2022-10-06T10:22:59.511Z,0.38
2022-10-06T10:25:46.023Z,1.13
2022-10-06T10:28:56.398Z,0.43
2022-10-06T10:31:50.578Z,0.50
2022-10-06T10:34:38.314Z,1.05
2022-10-06T10:37:12.222Z,0.47
2022-10-06T10:40:07.860Z,0.20
2022-10-06T10:42:40.866Z,0.60
2022-10-06T10:45:22.572Z,0.60
2022-10-06T10:47:49.300Z,1.00
2022-10-06T10:50:30.751Z,0.52
2022-10-06T10:53:33.005Z,0.37
2022-10-06T10:56:00.452Z,0.30
2022-10-06T10:58:33.690Z,0.30
2022-10-06T11:01:08.251Z,0.30
2022-10-06T11:03:34.662Z,0.40
2022-10-06T11:06:30.292Z,0.20
2022-10-06T11:09:55.235Z,0.40
2022-10-06T11:12:54.234Z,0.65
2022-10-06T11:15:32.081Z,0.43
2022-10-06T11:18:22.292Z,0.47
2022-10-06T11:20:55.914Z,0.40
2022-10-06T11:23:45.263Z,0.50
2022-10-06T11:26:48.920Z,0.60
2022-10-06T11:29:37.887Z,0.20
2022-10-06T11:32:46.442Z,0.28
2022-10-06T11:35:17.614Z,0.60
2022-10-06T11:38:20.333Z,0.98
2022-10-06T11:40:58.798Z,0.40
2022-10-06T11:43:43.876Z,0.35
2022-10-06T11:46:13.341Z,0.30
2022-10-06T11:48:40.511Z,0.67
2022-10-06T11:51:25.220Z,0.40
2022-10-06T11:53:52.945Z,0.40
2022-10-06T11:56:19.315Z,0.82
2022-10-06T11:58:51.805Z,0.30
2022-10-06T12:01:30.594Z,0.47
2022-10-06T12:04:09.143Z,0.40
2022-10-06T12:06:44.766Z,0.30
2022-10-06T12:09:31.768Z,0.32
2022-10-06T12:12:23.027Z,0.30
2022-10-06T12:18:04.976Z,0.30
2022-10-06T12:21:06.215Z,0.40
2022-10-06T12:23:48.422Z,0.50
2022-10-06T12:26:31.702Z,0.45
2022-10-06T12:29:20.590Z,0.57
2022-10-06T12:32:14.633Z,0.30
2022-10-06T12:35:08.266Z,0.20
2022-10-06T12:37:54.597Z,0.40
2022-10-06T12:40:40.610Z,0.63
2022-10-06T12:43:19.268Z,0.40
2022-10-06T12:45:59.534Z,0.60
2022-10-06T12:49:04.147Z,0.82
2022-10-06T12:51:41.344Z,0.40
2022-10-06T12:54:19.326Z,1.05
2022-10-06T12:56:58.696Z,0.37
2022-10-06T12:59:32.093Z,0.50
2022-10-06T13:02:01.459Z,0.40
2022-10-06T13:04:42.968Z,0.60
2022-10-06T13:07:57.384Z,0.43
2022-10-06T13:10:23.998Z,0.30
2022-10-06T13:12:52.130Z,0.30
2022-10-06T13:15:25.270Z,0.20
2022-10-06T13:18:12.945Z,0.57
2022-10-06T13:20:42.886Z,0.63
2022-10-06T13:23:11.810Z,0.30
2022-10-06T13:25:46.389Z,0.28
2022-10-06T13:28:34.323Z,0.20
2022-10-06T13:31:11.758Z,0.40
2022-10-06T13:33:44.273Z,0.30
2022-10-06T13:36:12.347Z,0.20
2022-10-06T13:38:39.861Z,0.40
2022-10-06T13:41:28.106Z,1.58
2022-10-06T13:43:56.148Z,0.55
2022-10-06T13:46:26.587Z,0.50
2022-10-06T13:48:59.533Z,0.40
2022-10-06T13:52:04.650Z,0.65
2022-10-06T13:54:53.852Z,0.50
2022-10-06T13:57:38.630Z,0.40
2022-10-06T14:00:36.747Z,0.30
2022-10-06T14:03:05.857Z,0.30
2022-10-06T14:05:40.919Z,0.30
2022-10-06T14:08:10.190Z,0.30
2022-10-06T14:10:51.680Z,0.40
2022-10-06T14:13:21.695Z,0.33
2022-10-06T14:15:50.972Z,0.43
2022-10-06T14:18:42.749Z,0.20
2022-10-06T14:21:28.760Z,0.30
2022-10-06T14:23:56.184Z,0.88
2022-10-06T14:26:28.669Z,0.40
2022-10-06T14:28:56.105Z,0.40
2022-10-06T14:31:25.839Z,0.17
2022-10-06T14:33:54.298Z,0.30
2022-10-06T14:36:36.310Z,0.30
2022-10-06T14:39:04.969Z,0.40
2022-10-06T14:41:32.037Z,0.40
2022-10-06T14:44:01.823Z,0.57
2022-10-06T14:46:29.888Z,0.10
2022-10-06T14:48:57.582Z,0.60
2022-10-06T14:51:26.001Z,0.20
2022-10-06T14:53:54.295Z,0.40
2022-10-06T14:56:36.176Z,0.28
2022-10-06T14:59:04.937Z,0.63
2022-10-06T15:01:33.318Z,0.30
2022-10-06T15:04:02.323Z,0.30
2022-10-06T15:06:48.010Z,0.40
2022-10-06T15:09:14.329Z,0.40
2022-10-06T15:11:41.270Z,0.35
2022-10-06T15:14:11.485Z,0.30
2022-10-06T15:16:40.706Z,0.40
2022-10-06T15:19:07.300Z,0.55
2022-10-06T15:21:34.179Z,0.38
2022-10-06T15:24:04.212Z,0.63
2022-10-06T15:26:49.527Z,0.50
2022-10-06T15:29:16.927Z,0.20
2022-10-06T15:31:52.895Z,0.47
2022-10-06T15:34:25.579Z,0.30
2022-10-06T15:36:53.367Z,0.40
2022-10-06T15:39:22.048Z,0.30
2022-10-06T15:41:48.520Z,0.53
2022-10-06T15:44:15.825Z,0.30
2022-10-06T15:46:44.801Z,0.40
2022-10-06T15:49:21.400Z,0.30
2022-10-06T15:52:03.603Z,0.47
2022-10-06T15:54:39.334Z,0.30
2022-10-06T15:57:11.601Z,0.35
2022-10-06T15:59:40.698Z,0.30
2022-10-06T16:02:14.394Z,0.45
2022-10-06T16:04:41.940Z,0.20
2022-10-06T16:07:14.123Z,0.40
2022-10-06T16:09:43.677Z,0.55
2022-10-06T16:12:13.873Z,0.88
2022-10-06T16:14:40.191Z,0.32
2022-10-06T16:17:07.667Z,0.38
2022-10-06T16:19:36.718Z,0.30
2022-10-06T16:22:05.053Z,0.43
2022-10-06T16:24:31.494Z,0.82
2022-10-06T16:26:59.702Z,0.35
2022-10-06T16:29:27.583Z,0.47
2022-10-06T16:31:54.106Z,0.40
2022-10-06T16:34:20.598Z,0.20
2022-10-06T16:36:46.927Z,0.30
2022-10-06T16:39:15.910Z,0.28
2022-10-06T16:41:42.908Z,0.40
2022-10-06T16:44:09.327Z,0.77
2022-10-06T16:46:35.762Z,0.70
2022-10-06T16:49:03.159Z,0.40
2022-10-06T16:58:45.729Z,0.20
2022-10-06T17:01:13.748Z,0.50
2022-10-06T17:03:41.126Z,0.32
2022-10-06T17:06:11.188Z,0.40
2022-10-06T17:08:38.530Z,0.50
2022-10-06T17:11:07.239Z,0.30
2022-10-06T17:13:35.464Z,0.57
2022-10-06T17:16:08.960Z,0.50
2022-10-06T17:18:36.051Z,0.40
2022-10-06T17:21:25.793Z,0.60
2022-10-06T17:23:58.238Z,1.17
2022-10-06T17:26:27.487Z,0.90
2022-10-06T17:29:06.094Z,0.50
2022-10-06T17:31:41.712Z,0.70
2022-10-06T17:34:12.019Z,0.85
2022-10-06T17:36:39.795Z,1.13
2022-10-06T17:39:08.250Z,0.45
2022-10-06T17:41:36.631Z,0.77
2022-10-06T17:44:05.971Z,1.00
2022-10-06T17:46:37.656Z,0.55
2022-10-06T17:49:09.889Z,0.60
2022-10-06T17:51:40.667Z,0.45
2022-10-06T17:54:12.258Z,0.60
2022-10-06T17:56:39.290Z,0.50
2022-10-06T17:59:08.591Z,0.60
2022-10-06T18:01:35.720Z,0.77
2022-10-06T18:04:05.004Z,0.47
2022-10-06T18:06:34.873Z,0.82
2022-10-06T18:09:02.668Z,0.47
2022-10-06T18:11:35.691Z,0.50
2022-10-06T18:14:24.101Z,0.30
2022-10-06T18:16:56.257Z,0.50
2022-10-06T18:19:30.136Z,0.57
2022-10-06T18:22:02.761Z,0.98
2022-10-06T18:24:31.216Z,0.40
2022-10-06T18:27:00.113Z,1.43
2022-10-06T18:29:30.361Z,0.70
2022-10-06T18:32:09.464Z,0.90
2022-10-06T18:37:30.723Z,0.70
2022-10-06T18:39:57.136Z,0.50
2022-10-06T18:42:24.059Z,0.80
2022-10-06T18:45:09.230Z,0.50
2022-10-06T18:47:54.016Z,0.73
2022-10-06T18:50:20.619Z,0.95
2022-10-06T18:52:46.985Z,0.90
2022-10-06T18:55:13.654Z,0.50
2022-10-06T18:57:40.836Z,0.70
2022-10-06T19:00:09.247Z,1.23
2022-10-06T19:02:35.655Z,0.82
2022-10-06T19:05:02.301Z,0.60
2022-10-06T19:07:30.625Z,0.77
2022-10-06T19:09:57.040Z,0.75
2022-10-06T19:12:23.467Z,0.93
2022-10-06T19:14:50.304Z,0.95
2022-10-06T19:17:16.729Z,0.97
2022-10-06T19:19:51.257Z,0.60
2022-10-06T19:22:19.898Z,0.80
2022-10-06T19:24:48.689Z,0.60
2022-10-06T19:27:20.561Z,0.75
2022-10-06T19:29:52.998Z,1.77
2022-10-06T19:32:23.445Z,0.50
2022-10-06T19:34:49.859Z,0.70
2022-10-06T19:37:16.897Z,0.60
2022-10-06T19:39:46.155Z,1.08
2022-10-06T19:42:33.160Z,0.63
2022-10-06T19:44:59.821Z,0.60
2022-10-06T19:47:27.222Z,0.82
2022-10-06T19:49:58.325Z,0.73
2022-10-06T19:52:26.231Z,0.93
2022-10-06T19:54:52.565Z,0.80
2022-10-06T19:57:18.907Z,1.02
2022-10-06T19:59:45.447Z,0.70
2022-10-06T20:02:12.017Z,0.70
2022-10-06T20:04:39.522Z,0.88
2022-10-06T20:07:05.977Z,0.60
2022-10-06T20:09:32.488Z,1.10
2022-10-06T20:12:00.095Z,1.10
2022-10-06T20:14:26.695Z,1.20
2022-10-06T20:16:55.282Z,1.60
2022-10-06T20:19:22.069Z,1.27
2022-10-06T20:21:48.922Z,1.25
2022-10-06T20:24:24.651Z,1.42
2022-10-06T20:26:52.251Z,1.27
2022-10-06T20:29:21.724Z,1.67
2022-10-06T20:31:51.188Z,1.13
2022-10-06T20:34:21.361Z,1.20
2022-10-06T20:36:51.887Z,1.48
2022-10-06T20:39:41.829Z,1.85
2022-10-06T20:42:13.872Z,1.15
2022-10-06T20:44:41.144Z,0.90
2022-10-06T20:47:08.834Z,1.20
2022-10-06T20:49:35.259Z,1.20
2022-10-06T20:52:02.721Z,1.77
2022-10-06T20:54:34.842Z,1.10
2022-10-06T20:57:03.904Z,0.90
2022-10-06T20:59:31.312Z,1.02
2022-10-06T21:01:59.975Z,1.58
2022-10-06T21:04:32.487Z,1.35
2022-10-06T21:06:58.945Z,0.93
2022-10-06T21:09:28.175Z,0.97
2022-10-06T21:11:54.544Z,1.05
2022-10-06T21:14:21.020Z,0.80
2022-10-06T21:16:50.539Z,1.30
2022-10-06T21:19:19.190Z,1.35
2022-10-06T21:21:51.732Z,1.37
2022-10-06T21:24:18.567Z,1.42
2022-10-06T21:26:45.036Z,1.15
2022-10-06T21:29:14.034Z,1.05
2022-10-06T21:31:41.402Z,1.95
2022-10-06T21:34:07.951Z,1.47
2022-10-06T21:36:34.368Z,2.00
2022-10-06T21:39:01.616Z,2.10
2022-10-06T21:41:30.697Z,2.38
2022-10-06T21:44:17.400Z,1.60
2022-10-06T21:46:55.378Z,1.23
2022-10-06T21:49:23.728Z,1.13
2022-10-06T21:51:52.536Z,1.67
2022-10-06T21:54:20.103Z,1.38
2022-10-06T21:56:46.855Z,1.40
2022-10-06T21:59:13.342Z,1.43
2022-10-06T22:01:42.296Z,1.73
2022-10-06T22:04:09.454Z,1.80
2022-10-06T22:06:36.858Z,2.38
2022-10-06T22:09:05.950Z,1.50
2022-10-06T22:11:35.308Z,1.97
2022-10-06T22:14:04.994Z,1.55
2022-10-06T22:16:33.583Z,1.90
2022-10-06T22:19:02.556Z,2.45
2022-10-06T22:21:31.913Z,2.25
2022-10-06T22:24:02.620Z,1.53
2022-10-06T22:26:31.240Z,2.00
2022-10-06T22:28:59.060Z,1.60
2022-10-06T22:31:27.039Z,1.58
2022-10-06T22:33:55.989Z,1.80
2022-10-06T22:36:22.764Z,1.90
2022-10-06T22:38:49.164Z,1.73
2022-10-06T22:41:15.962Z,2.05
2022-10-06T22:43:42.517Z,1.42
2022-10-06T22:46:10.891Z,2.08
2022-10-06T22:48:37.914Z,1.97
2022-10-06T22:51:05.286Z,1.88
2022-10-06T22:53:32.012Z,1.40
2022-10-06T22:56:02.651Z,2.03
2022-10-06T22:58:29.336Z,1.95
2022-10-06T23:00:55.853Z,1.17
2022-10-06T23:03:23.083Z,1.65
2022-10-06T23:05:57.289Z,2.17
2022-10-06T23:08:24.064Z,1.55
2022-10-06T23:10:50.791Z,1.90
2022-10-06T23:13:17.556Z,2.00
2022-10-06T23:15:44.023Z,1.85
2022-10-06T23:18:10.885Z,1.67
2022-10-06T23:20:37.364Z,1.60
2022-10-06T23:23:04.243Z,1.50
2022-10-06T23:25:30.656Z,1.60
2022-10-06T23:27:57.104Z,1.60
2022-10-06T23:30:23.601Z,1.55
2022-10-06T23:32:49.988Z,1.50
2022-10-06T23:35:16.432Z,1.65
2022-10-06T23:37:43.049Z,1.60
2022-10-06T23:40:10.210Z,1.70
2022-10-06T23:42:36.638Z,1.83
2022-10-06T23:45:03.102Z,1.48
2022-10-06T23:47:29.511Z,1.30
2022-10-06T23:49:55.877Z,1.37
2022-10-06T23:52:22.480Z,1.23
2022-10-06T23:54:49.560Z,1.85
2022-10-06T23:57:15.954Z,1.48
2022-10-06T23:59:42.341Z,1.10
